sensor_id;sensor_type;location;lat;lon;timestamp;temperature;humidity
77727;SHT30;68312;53.502;10.030;2023-04-24T00:00:38;11.33;91.96
77727;SHT30;68312;53.502;10.030;2023-04-24T00:03:03;11.29;91.87
77727;SHT30;68312;53.502;10.030;2023-04-24T00:05:29;11.29;91.86
77727;SHT30;68312;53.502;10.030;2023-04-24T00:07:54;11.26;91.90
77727;SHT30;68312;53.502;10.030;2023-04-24T00:10:20;11.24;92.03
77727;SHT30;68312;53.502;10.030;2023-04-24T00:12:46;11.26;92.14
77727;SHT30;68312;53.502;10.030;2023-04-24T00:15:12;11.22;92.36
77727;SHT30;68312;53.502;10.030;2023-04-24T00:17:38;11.23;92.49
77727;SHT30;68312;53.502;10.030;2023-04-24T00:20:05;11.19;92.58
77727;SHT30;68312;53.502;10.030;2023-04-24T00:22:31;11.22;92.64
77727;SHT30;68312;53.502;10.030;2023-04-24T00:24:57;11.16;92.71
77727;SHT30;68312;53.502;10.030;2023-04-24T00:27:22;11.15;92.86
77727;SHT30;68312;53.502;10.030;2023-04-24T00:29:48;11.16;93.07
77727;SHT30;68312;53.502;10.030;2023-04-24T00:32:14;11.12;92.99
77727;SHT30;68312;53.502;10.030;2023-04-24T00:34:40;11.06;92.99
77727;SHT30;68312;53.502;10.030;2023-04-24T00:37:06;11.03;93.16
77727;SHT30;68312;53.502;10.030;2023-04-24T00:39:32;10.95;93.08
77727;SHT30;68312;53.502;10.030;2023-04-24T00:41:58;10.89;93.25
77727;SHT30;68312;53.502;10.030;2023-04-24T00:44:23;10.85;93.39
77727;SHT30;68312;53.502;10.030;2023-04-24T00:46:49;10.79;93.47
77727;SHT30;68312;53.502;10.030;2023-04-24T00:49:15;10.72;93.53
77727;SHT30;68312;53.502;10.030;2023-04-24T00:51:41;10.68;93.69
77727;SHT30;68312;53.502;10.030;2023-04-24T00:54:06;10.67;93.86
77727;SHT30;68312;53.502;10.030;2023-04-24T00:56:32;10.64;93.81
77727;SHT30;68312;53.502;10.030;2023-04-24T00:58:58;10.64;93.78
77727;SHT30;68312;53.502;10.030;2023-04-24T01:01:24;10.58;93.71
77727;SHT30;68312;53.502;10.030;2023-04-24T01:03:51;10.57;93.75
77727;SHT30;68312;53.502;10.030;2023-04-24T01:06:19;10.58;93.47
77727;SHT30;68312;53.502;10.030;2023-04-24T01:08:47;10.65;92.99
77727;SHT30;68312;53.502;10.030;2023-04-24T01:11:14;10.62;93.03
77727;SHT30;68312;53.502;10.030;2023-04-24T01:13:40;10.64;92.75
77727;SHT30;68312;53.502;10.030;2023-04-24T01:16:05;10.59;92.65
77727;SHT30;68312;53.502;10.030;2023-04-24T01:18:30;10.59;92.64
77727;SHT30;68312;53.502;10.030;2023-04-24T01:21:03;10.52;92.62
77727;SHT30;68312;53.502;10.030;2023-04-24T01:23:29;10.50;92.32
77727;SHT30;68312;53.502;10.030;2023-04-24T01:25:55;10.45;92.38
77727;SHT30;68312;53.502;10.030;2023-04-24T01:28:21;10.48;92.60
77727;SHT30;68312;53.502;10.030;2023-04-24T01:30:48;10.47;92.85
77727;SHT30;68312;53.502;10.030;2023-04-24T01:33:14;10.51;92.78
77727;SHT30;68312;53.502;10.030;2023-04-24T01:35:40;10.52;92.68
77727;SHT30;68312;53.502;10.030;2023-04-24T01:38:05;10.62;92.42
77727;SHT30;68312;53.502;10.030;2023-04-24T01:40:32;10.62;92.38
77727;SHT30;68312;53.502;10.030;2023-04-24T01:42:58;10.67;92.43
77727;SHT30;68312;53.502;10.030;2023-04-24T01:45:24;10.71;92.15
77727;SHT30;68312;53.502;10.030;2023-04-24T01:47:50;10.71;91.84
77727;SHT30;68312;53.502;10.030;2023-04-24T01:50:16;10.82;91.23
77727;SHT30;68312;53.502;10.030;2023-04-24T01:52:42;10.79;91.52
77727;SHT30;68312;53.502;10.030;2023-04-24T01:55:09;10.69;91.56
77727;SHT30;68312;53.502;10.030;2023-04-24T01:57:35;10.68;91.29
77727;SHT30;68312;53.502;10.030;2023-04-24T02:00:05;10.67;91.30
77727;SHT30;68312;53.502;10.030;2023-04-24T02:02:31;10.62;91.11
77727;SHT30;68312;53.502;10.030;2023-04-24T02:04:57;10.59;91.13
77727;SHT30;68312;53.502;10.030;2023-04-24T02:07:22;10.57;90.93
77727;SHT30;68312;53.502;10.030;2023-04-24T02:09:48;10.52;91.11
77727;SHT30;68312;53.502;10.030;2023-04-24T02:12:15;10.50;91.02
77727;SHT30;68312;53.502;10.030;2023-04-24T02:14:41;10.36;91.20
77727;SHT30;68312;53.502;10.030;2023-04-24T02:17:06;10.27;91.66
77727;SHT30;68312;53.502;10.030;2023-04-24T02:19:32;10.16;92.11
77727;SHT30;68312;53.502;10.030;2023-04-24T02:21:57;10.07;92.39
77727;SHT30;68312;53.502;10.030;2023-04-24T02:24:22;10.00;92.79
77727;SHT30;68312;53.502;10.030;2023-04-24T02:26:48;9.94;92.92
77727;SHT30;68312;53.502;10.030;2023-04-24T02:29:13;9.96;92.89
77727;SHT30;68312;53.502;10.030;2023-04-24T02:31:39;9.94;92.89
77727;SHT30;68312;53.502;10.030;2023-04-24T02:34:04;9.87;92.89
77727;SHT30;68312;53.502;10.030;2023-04-24T02:36:30;9.85;92.82
77727;SHT30;68312;53.502;10.030;2023-04-24T02:38:55;9.83;92.91
77727;SHT30;68312;53.502;10.030;2023-04-24T02:41:21;9.80;92.62
77727;SHT30;68312;53.502;10.030;2023-04-24T02:43:46;9.79;92.50
77727;SHT30;68312;53.502;10.030;2023-04-24T02:46:12;9.79;92.46
77727;SHT30;68312;53.502;10.030;2023-04-24T02:48:37;9.76;92.52
77727;SHT30;68312;53.502;10.030;2023-04-24T02:51:03;9.71;92.41
77727;SHT30;68312;53.502;10.030;2023-04-24T02:53:29;9.73;92.49
77727;SHT30;68312;53.502;10.030;2023-04-24T02:55:54;9.78;91.98
77727;SHT30;68312;53.502;10.030;2023-04-24T02:58:19;9.85;91.34
77727;SHT30;68312;53.502;10.030;2023-04-24T03:00:46;9.87;91.11
77727;SHT30;68312;53.502;10.030;2023-04-24T03:03:11;9.83;91.25
77727;SHT30;68312;53.502;10.030;2023-04-24T03:05:37;9.78;91.22
77727;SHT30;68312;53.502;10.030;2023-04-24T03:08:02;9.80;91.62
77727;SHT30;68312;53.502;10.030;2023-04-24T03:10:28;9.80;90.76
77727;SHT30;68312;53.502;10.030;2023-04-24T03:12:53;9.87;89.52
77727;SHT30;68312;53.502;10.030;2023-04-24T03:15:18;10.09;88.17
77727;SHT30;68312;53.502;10.030;2023-04-24T03:17:44;10.21;87.39
77727;SHT30;68312;53.502;10.030;2023-04-24T03:20:10;10.18;87.48
77727;SHT30;68312;53.502;10.030;2023-04-24T03:22:35;10.18;87.47
77727;SHT30;68312;53.502;10.030;2023-04-24T03:25:01;10.04;88.09
77727;SHT30;68312;53.502;10.030;2023-04-24T03:27:26;10.03;87.84
77727;SHT30;68312;53.502;10.030;2023-04-24T03:29:52;9.93;88.36
77727;SHT30;68312;53.502;10.030;2023-04-24T03:32:18;9.99;87.35
77727;SHT30;68312;53.502;10.030;2023-04-24T03:34:43;9.97;87.01
77727;SHT30;68312;53.502;10.030;2023-04-24T03:37:09;10.14;86.79
77727;SHT30;68312;53.502;10.030;2023-04-24T03:39:34;10.10;86.18
77727;SHT30;68312;53.502;10.030;2023-04-24T03:41:59;10.03;86.14
77727;SHT30;68312;53.502;10.030;2023-04-24T03:44:25;10.06;85.96
77727;SHT30;68312;53.502;10.030;2023-04-24T03:46:50;9.99;86.10
77727;SHT30;68312;53.502;10.030;2023-04-24T03:49:16;9.89;86.44
77727;SHT30;68312;53.502;10.030;2023-04-24T03:51:41;9.82;86.26
77727;SHT30;68312;53.502;10.030;2023-04-24T03:54:07;9.79;86.25
77727;SHT30;68312;53.502;10.030;2023-04-24T03:56:32;9.85;85.73
77727;SHT30;68312;53.502;10.030;2023-04-24T03:58:57;9.80;85.73
77727;SHT30;68312;53.502;10.030;2023-04-24T04:01:23;9.76;85.96
77727;SHT30;68312;53.502;10.030;2023-04-24T04:03:48;9.76;85.04
77727;SHT30;68312;53.502;10.030;2023-04-24T04:06:14;9.72;85.10
77727;SHT30;68312;53.502;10.030;2023-04-24T04:08:39;9.61;85.70
77727;SHT30;68312;53.502;10.030;2023-04-24T04:11:05;9.58;85.93
77727;SHT30;68312;53.502;10.030;2023-04-24T04:13:30;9.52;85.79
77727;SHT30;68312;53.502;10.030;2023-04-24T04:15:56;9.56;85.31
77727;SHT30;68312;53.502;10.030;2023-04-24T04:18:21;9.48;84.82
77727;SHT30;68312;53.502;10.030;2023-04-24T04:20:46;9.63;83.81
77727;SHT30;68312;53.502;10.030;2023-04-24T04:23:12;9.58;83.85
77727;SHT30;68312;53.502;10.030;2023-04-24T04:25:37;9.73;82.67
77727;SHT30;68312;53.502;10.030;2023-04-24T04:28:03;9.86;81.13
77727;SHT30;68312;53.502;10.030;2023-04-24T04:30:28;9.78;81.90
77727;SHT30;68312;53.502;10.030;2023-04-24T04:32:54;9.85;81.37
77727;SHT30;68312;53.502;10.030;2023-04-24T04:35:19;9.94;79.56
77727;SHT30;68312;53.502;10.030;2023-04-24T04:37:45;9.97;80.50
77727;SHT30;68312;53.502;10.030;2023-04-24T04:40:10;9.92;80.57
77727;SHT30;68312;53.502;10.030;2023-04-24T04:42:36;9.85;80.75
77727;SHT30;68312;53.502;10.030;2023-04-24T04:45:01;9.82;80.52
77727;SHT30;68312;53.502;10.030;2023-04-24T04:47:27;9.86;80.88
77727;SHT30;68312;53.502;10.030;2023-04-24T04:49:53;9.99;80.93
77727;SHT30;68312;53.502;10.030;2023-04-24T04:52:19;10.00;79.50
77727;SHT30;68312;53.502;10.030;2023-04-24T04:54:44;10.04;79.93
77727;SHT30;68312;53.502;10.030;2023-04-24T04:57:10;10.03;80.60
77727;SHT30;68312;53.502;10.030;2023-04-24T04:59:35;10.07;79.76
77727;SHT30;68312;53.502;10.030;2023-04-24T05:02:01;10.04;79.32
77727;SHT30;68312;53.502;10.030;2023-04-24T05:04:26;10.09;79.13
77727;SHT30;68312;53.502;10.030;2023-04-24T05:06:52;10.06;79.42
77727;SHT30;68312;53.502;10.030;2023-04-24T05:09:18;10.04;78.78
77727;SHT30;68312;53.502;10.030;2023-04-24T05:11:44;10.14;78.58
77727;SHT30;68312;53.502;10.030;2023-04-24T05:14:09;10.17;78.60
77727;SHT30;68312;53.502;10.030;2023-04-24T05:16:35;10.23;78.73
77727;SHT30;68312;53.502;10.030;2023-04-24T05:19:00;10.24;78.36
77727;SHT30;68312;53.502;10.030;2023-04-24T05:21:25;10.36;78.51
77727;SHT30;68312;53.502;10.030;2023-04-24T05:23:51;10.37;79.86
77727;SHT30;68312;53.502;10.030;2023-04-24T05:26:16;10.38;78.25
77727;SHT30;68312;53.502;10.030;2023-04-24T05:28:42;10.51;78.12
77727;SHT30;68312;53.502;10.030;2023-04-24T05:31:07;10.50;78.12
77727;SHT30;68312;53.502;10.030;2023-04-24T05:33:33;10.55;76.77
77727;SHT30;68312;53.502;10.030;2023-04-24T05:35:58;10.62;78.21
77727;SHT30;68312;53.502;10.030;2023-04-24T05:38:23;10.78;76.79
77727;SHT30;68312;53.502;10.030;2023-04-24T05:40:49;10.82;77.34
77727;SHT30;68312;53.502;10.030;2023-04-24T05:43:14;10.75;78.09
77727;SHT30;68312;53.502;10.030;2023-04-24T05:45:40;10.83;77.21
77727;SHT30;68312;53.502;10.030;2023-04-24T05:48:05;10.93;76.65
77727;SHT30;68312;53.502;10.030;2023-04-24T05:50:32;11.05;74.44
77727;SHT30;68312;53.502;10.030;2023-04-24T05:52:57;11.16;74.87
77727;SHT30;68312;53.502;10.030;2023-04-24T05:55:24;11.16;74.73
77727;SHT30;68312;53.502;10.030;2023-04-24T05:57:50;11.19;75.68
77727;SHT30;68312;53.502;10.030;2023-04-24T06:00:16;11.31;74.75
77727;SHT30;68312;53.502;10.030;2023-04-24T06:02:41;11.30;75.30
77727;SHT30;68312;53.502;10.030;2023-04-24T06:05:07;11.37;73.84
77727;SHT30;68312;53.502;10.030;2023-04-24T06:07:33;11.46;74.80
77727;SHT30;68312;53.502;10.030;2023-04-24T06:09:59;11.56;72.88
77727;SHT30;68312;53.502;10.030;2023-04-24T06:12:25;11.61;72.05
77727;SHT30;68312;53.502;10.030;2023-04-24T06:14:51;11.77;72.25
77727;SHT30;68312;53.502;10.030;2023-04-24T06:17:16;11.88;71.63
77727;SHT30;68312;53.502;10.030;2023-04-24T06:19:42;11.92;72.31
77727;SHT30;68312;53.502;10.030;2023-04-24T06:22:07;12.04;71.79
77727;SHT30;68312;53.502;10.030;2023-04-24T06:24:34;11.99;70.90
77727;SHT30;68312;53.502;10.030;2023-04-24T06:26:59;12.16;71.28
77727;SHT30;68312;53.502;10.030;2023-04-24T06:29:25;12.21;69.33
77727;SHT30;68312;53.502;10.030;2023-04-24T06:31:50;12.25;70.34
77727;SHT30;68312;53.502;10.030;2023-04-24T06:34:16;12.32;70.84
77727;SHT30;68312;53.502;10.030;2023-04-24T06:36:41;12.39;69.95
77727;SHT30;68312;53.502;10.030;2023-04-24T06:39:07;12.49;70.46
77727;SHT30;68312;53.502;10.030;2023-04-24T06:41:32;12.67;69.89
77727;SHT30;68312;53.502;10.030;2023-04-24T06:43:58;12.64;67.41
77727;SHT30;68312;53.502;10.030;2023-04-24T06:46:23;12.59;67.99
77727;SHT30;68312;53.502;10.030;2023-04-24T06:48:49;12.74;67.99
77727;SHT30;68312;53.502;10.030;2023-04-24T06:51:15;12.81;69.81
77727;SHT30;68312;53.502;10.030;2023-04-24T06:53:40;12.87;66.76
77727;SHT30;68312;53.502;10.030;2023-04-24T06:56:06;12.94;66.90
77727;SHT30;68312;53.502;10.030;2023-04-24T06:58:31;12.88;65.88
77727;SHT30;68312;53.502;10.030;2023-04-24T07:00:57;13.08;66.17
77727;SHT30;68312;53.502;10.030;2023-04-24T07:03:22;13.24;66.30
77727;SHT30;68312;53.502;10.030;2023-04-24T07:05:48;13.31;66.00
77727;SHT30;68312;53.502;10.030;2023-04-24T07:08:14;13.29;67.53
77727;SHT30;68312;53.502;10.030;2023-04-24T07:10:39;13.22;65.86
77727;SHT30;68312;53.502;10.030;2023-04-24T07:13:04;13.26;65.65
77727;SHT30;68312;53.502;10.030;2023-04-24T07:15:30;13.29;65.60
77727;SHT30;68312;53.502;10.030;2023-04-24T07:17:55;13.45;65.50
77727;SHT30;68312;53.502;10.030;2023-04-24T07:20:21;13.38;66.12
77727;SHT30;68312;53.502;10.030;2023-04-24T07:22:46;13.28;64.36
77727;SHT30;68312;53.502;10.030;2023-04-24T07:25:12;13.67;64.53
77727;SHT30;68312;53.502;10.030;2023-04-24T07:27:37;14.30;63.73
77727;SHT30;68312;53.502;10.030;2023-04-24T07:30:04;14.75;61.04
77727;SHT30;68312;53.502;10.030;2023-04-24T07:32:30;14.76;61.28
77727;SHT30;68312;53.502;10.030;2023-04-24T07:34:55;14.54;59.86
77727;SHT30;68312;53.502;10.030;2023-04-24T07:37:22;14.86;61.50
77727;SHT30;68312;53.502;10.030;2023-04-24T07:39:48;14.89;59.86
77727;SHT30;68312;53.502;10.030;2023-04-24T07:42:13;14.85;60.28
77727;SHT30;68312;53.502;10.030;2023-04-24T07:44:39;14.79;60.15
77727;SHT30;68312;53.502;10.030;2023-04-24T07:47:04;14.14;61.08
77727;SHT30;68312;53.502;10.030;2023-04-24T07:49:30;13.63;62.35
77727;SHT30;68312;53.502;10.030;2023-04-24T07:51:55;13.49;64.26
77727;SHT30;68312;53.502;10.030;2023-04-24T07:54:20;13.80;62.56
77727;SHT30;68312;53.502;10.030;2023-04-24T07:56:46;14.40;62.15
77727;SHT30;68312;53.502;10.030;2023-04-24T07:59:13;14.52;61.47
77727;SHT30;68312;53.502;10.030;2023-04-24T08:01:38;14.27;61.12
77727;SHT30;68312;53.502;10.030;2023-04-24T08:04:04;14.28;62.08
77727;SHT30;68312;53.502;10.030;2023-04-24T08:06:29;14.44;61.34
77727;SHT30;68312;53.502;10.030;2023-04-24T08:08:56;14.31;60.40
77727;SHT30;68312;53.502;10.030;2023-04-24T08:11:21;14.17;61.97
77727;SHT30;68312;53.502;10.030;2023-04-24T08:13:47;13.91;62.39
77727;SHT30;68312;53.502;10.030;2023-04-24T08:16:12;13.87;63.66
77727;SHT30;68312;53.502;10.030;2023-04-24T08:18:38;13.86;64.81
77727;SHT30;68312;53.502;10.030;2023-04-24T08:21:04;13.59;62.43
77727;SHT30;68312;53.502;10.030;2023-04-24T08:23:29;13.32;63.36
77727;SHT30;68312;53.502;10.030;2023-04-24T08:25:55;13.19;63.54
77727;SHT30;68312;53.502;10.030;2023-04-24T08:28:21;13.22;64.60
77727;SHT30;68312;53.502;10.030;2023-04-24T08:30:47;13.25;64.62
77727;SHT30;68312;53.502;10.030;2023-04-24T08:33:14;13.15;64.98
77727;SHT30;68312;53.502;10.030;2023-04-24T08:35:39;13.08;64.54
77727;SHT30;68312;53.502;10.030;2023-04-24T08:38:05;12.90;64.59
77727;SHT30;68312;53.502;10.030;2023-04-24T08:40:34;12.87;64.00
77727;SHT30;68312;53.502;10.030;2023-04-24T08:43:00;12.95;64.22
77727;SHT30;68312;53.502;10.030;2023-04-24T08:45:26;13.11;65.30
77727;SHT30;68312;53.502;10.030;2023-04-24T08:47:55;13.25;63.66
77727;SHT30;68312;53.502;10.030;2023-04-24T08:50:23;13.44;64.54
77727;SHT30;68312;53.502;10.030;2023-04-24T08:52:51;13.49;62.95
77727;SHT30;68312;53.502;10.030;2023-04-24T08:55:17;13.59;62.49
77727;SHT30;68312;53.502;10.030;2023-04-24T08:57:43;13.59;61.97
77727;SHT30;68312;53.502;10.030;2023-04-24T09:00:12;13.99;62.96
77727;SHT30;68312;53.502;10.030;2023-04-24T09:02:42;14.24;60.68
77727;SHT30;68312;53.502;10.030;2023-04-24T09:05:08;14.16;60.10
77727;SHT30;68312;53.502;10.030;2023-04-24T09:07:36;13.87;60.33
77727;SHT30;68312;53.502;10.030;2023-04-24T09:10:06;13.52;61.30
77727;SHT30;68312;53.502;10.030;2023-04-24T09:12:34;13.22;61.96
77727;SHT30;68312;53.502;10.030;2023-04-24T09:15:02;13.03;62.67
77727;SHT30;68312;53.502;10.030;2023-04-24T09:17:28;13.04;62.86
77727;SHT30;68312;53.502;10.030;2023-04-24T09:19:53;13.00;63.93
77727;SHT30;68312;53.502;10.030;2023-04-24T09:22:19;13.11;65.44
77727;SHT30;68312;53.502;10.030;2023-04-24T09:24:45;13.19;65.56
77727;SHT30;68312;53.502;10.030;2023-04-24T09:27:11;13.19;63.82
77727;SHT30;68312;53.502;10.030;2023-04-24T09:29:37;13.24;65.20
77727;SHT30;68312;53.502;10.030;2023-04-24T09:32:20;13.29;63.66
77727;SHT30;68312;53.502;10.030;2023-04-24T09:34:47;13.29;62.80
77727;SHT30;68312;53.502;10.030;2023-04-24T09:37:28;13.38;66.18
77727;SHT30;68312;53.502;10.030;2023-04-24T09:40:20;13.25;63.50
77727;SHT30;68312;53.502;10.030;2023-04-24T09:42:57;13.14;63.38
77727;SHT30;68312;53.502;10.030;2023-04-24T09:45:28;13.11;64.08
77727;SHT30;68312;53.502;10.030;2023-04-24T09:48:00;13.12;64.11
77727;SHT30;68312;53.502;10.030;2023-04-24T09:50:26;13.08;63.23
77727;SHT30;68312;53.502;10.030;2023-04-24T09:53:02;13.14;64.48
77727;SHT30;68312;53.502;10.030;2023-04-24T09:55:28;13.22;63.39
77727;SHT30;68312;53.502;10.030;2023-04-24T09:57:59;13.74;63.89
77727;SHT30;68312;53.502;10.030;2023-04-24T10:00:30;14.04;62.58
77727;SHT30;68312;53.502;10.030;2023-04-24T10:03:05;14.16;62.63
77727;SHT30;68312;53.502;10.030;2023-04-24T10:05:35;14.10;63.31
77727;SHT30;68312;53.502;10.030;2023-04-24T10:08:08;13.73;62.51
77727;SHT30;68312;53.502;10.030;2023-04-24T10:10:43;13.51;63.22
77727;SHT30;68312;53.502;10.030;2023-04-24T10:13:11;13.45;63.97
77727;SHT30;68312;53.502;10.030;2023-04-24T10:15:39;13.41;64.50
77727;SHT30;68312;53.502;10.030;2023-04-24T10:18:07;13.39;63.65
77727;SHT30;68312;53.502;10.030;2023-04-24T10:20:36;13.49;64.66
77727;SHT30;68312;53.502;10.030;2023-04-24T10:23:04;13.32;65.80
77727;SHT30;68312;53.502;10.030;2023-04-24T10:25:32;13.26;65.68
77727;SHT30;68312;53.502;10.030;2023-04-24T10:28:01;13.11;64.67
77727;SHT30;68312;53.502;10.030;2023-04-24T10:30:30;12.90;64.89
77727;SHT30;68312;53.502;10.030;2023-04-24T10:33:04;12.64;65.92
77727;SHT30;68312;53.502;10.030;2023-04-24T10:35:41;12.57;66.22
77727;SHT30;68312;53.502;10.030;2023-04-24T10:38:13;12.49;66.93
77727;SHT30;68312;53.502;10.030;2023-04-24T10:40:42;12.40;67.49
77727;SHT30;68312;53.502;10.030;2023-04-24T10:43:08;12.52;66.83
77727;SHT30;68312;53.502;10.030;2023-04-24T10:45:34;12.61;66.13
77727;SHT30;68312;53.502;10.030;2023-04-24T10:48:18;12.90;65.47
77727;SHT30;68312;53.502;10.030;2023-04-24T10:50:53;13.26;63.40
77727;SHT30;68312;53.502;10.030;2023-04-24T10:53:22;13.90;61.85
77727;SHT30;68312;53.502;10.030;2023-04-24T10:56:04;14.44;58.62
77727;SHT30;68312;53.502;10.030;2023-04-24T10:58:49;14.96;60.57
77727;SHT30;68312;53.502;10.030;2023-04-24T11:01:29;15.19;58.01
77727;SHT30;68312;53.502;10.030;2023-04-24T11:04:02;15.37;55.97
77727;SHT30;68312;53.502;10.030;2023-04-24T11:06:34;15.60;57.47
77727;SHT30;68312;53.502;10.030;2023-04-24T11:09:10;15.57;56.39
77727;SHT30;68312;53.502;10.030;2023-04-24T11:11:37;15.36;55.39
77727;SHT30;68312;53.502;10.030;2023-04-24T11:14:06;15.58;55.87
77727;SHT30;68312;53.502;10.030;2023-04-24T11:16:42;15.65;55.78
77727;SHT30;68312;53.502;10.030;2023-04-24T11:21:57;14.88;57.67
77727;SHT30;68312;53.502;10.030;2023-04-24T11:27:12;14.13;58.34
77727;SHT30;68312;53.502;10.030;2023-04-24T11:29:51;14.13;59.21
77727;SHT30;68312;53.502;10.030;2023-04-24T11:35:23;14.73;57.29
77727;SHT30;68312;53.502;10.030;2023-04-24T11:37:51;14.46;57.57
77727;SHT30;68312;53.502;10.030;2023-04-24T11:40:21;14.57;59.72
77727;SHT30;68312;53.502;10.030;2023-04-24T11:42:49;14.58;57.27
77727;SHT30;68312;53.502;10.030;2023-04-24T11:45:29;14.52;58.35
77727;SHT30;68312;53.502;10.030;2023-04-24T11:47:56;14.41;56.96
77727;SHT30;68312;53.502;10.030;2023-04-24T11:50:24;14.45;59.04
77727;SHT30;68312;53.502;10.030;2023-04-24T11:52:51;14.28;56.61
77727;SHT30;68312;53.502;10.030;2023-04-24T11:57:55;14.40;57.74
77727;SHT30;68312;53.502;10.030;2023-04-24T12:00:32;14.30;56.93
77727;SHT30;68312;53.502;10.030;2023-04-24T12:03:11;14.38;56.63
77727;SHT30;68312;53.502;10.030;2023-04-24T12:05:38;14.79;55.72
77727;SHT30;68312;53.502;10.030;2023-04-24T12:08:04;14.91;54.79
77727;SHT30;68312;53.502;10.030;2023-04-24T12:10:32;14.96;54.39
77727;SHT30;68312;53.502;10.030;2023-04-24T12:12:59;14.86;56.24
77727;SHT30;68312;53.502;10.030;2023-04-24T12:15:26;14.78;55.67
77727;SHT30;68312;53.502;10.030;2023-04-24T12:17:53;14.49;55.67
77727;SHT30;68312;53.502;10.030;2023-04-24T12:20:31;14.54;56.00
77727;SHT30;68312;53.502;10.030;2023-04-24T12:23:00;14.44;55.85
77727;SHT30;68312;53.502;10.030;2023-04-24T12:25:31;14.23;56.73
77727;SHT30;68312;53.502;10.030;2023-04-24T12:30:33;14.00;59.76
77727;SHT30;68312;53.502;10.030;2023-04-24T12:33:02;13.83;57.91
77727;SHT30;68312;53.502;10.030;2023-04-24T12:35:30;13.55;59.13
77727;SHT30;68312;53.502;10.030;2023-04-24T12:38:12;13.35;59.90
77727;SHT30;68312;53.502;10.030;2023-04-24T12:40:39;13.32;60.16
77727;SHT30;68312;53.502;10.030;2023-04-24T12:43:16;13.18;60.18
77727;SHT30;68312;53.502;10.030;2023-04-24T12:45:43;13.04;62.47
77727;SHT30;68312;53.502;10.030;2023-04-24T12:48:09;12.91;61.16
77727;SHT30;68312;53.502;10.030;2023-04-24T12:50:34;12.83;61.64
77727;SHT30;68312;53.502;10.030;2023-04-24T12:53:00;12.70;61.69
77727;SHT30;68312;53.502;10.030;2023-04-24T12:55:25;12.73;62.09
77727;SHT30;68312;53.502;10.030;2023-04-24T12:57:50;12.56;62.72
77727;SHT30;68312;53.502;10.030;2023-04-24T13:00:16;12.45;62.92
77727;SHT30;68312;53.502;10.030;2023-04-24T13:02:42;12.43;63.60
77727;SHT30;68312;53.502;10.030;2023-04-24T13:05:08;12.46;64.42
77727;SHT30;68312;53.502;10.030;2023-04-24T13:07:34;12.42;63.34
77727;SHT30;68312;53.502;10.030;2023-04-24T13:09:59;12.47;63.56
77727;SHT30;68312;53.502;10.030;2023-04-24T13:12:25;12.42;63.54
77727;SHT30;68312;53.502;10.030;2023-04-24T13:14:51;12.37;63.98
77727;SHT30;68312;53.502;10.030;2023-04-24T13:17:16;12.29;64.34
77727;SHT30;68312;53.502;10.030;2023-04-24T13:19:43;12.24;65.49
77727;SHT30;68312;53.502;10.030;2023-04-24T13:22:11;12.16;67.07
77727;SHT30;68312;53.502;10.030;2023-04-24T13:24:38;12.22;65.54
77727;SHT30;68312;53.502;10.030;2023-04-24T13:27:04;12.21;65.77
77727;SHT30;68312;53.502;10.030;2023-04-24T13:29:30;12.16;66.13
77727;SHT30;68312;53.502;10.030;2023-04-24T13:31:55;12.26;65.92
77727;SHT30;68312;53.502;10.030;2023-04-24T13:34:23;12.47;64.90
77727;SHT30;68312;53.502;10.030;2023-04-24T13:36:52;12.55;66.17
77727;SHT30;68312;53.502;10.030;2023-04-24T13:39:19;12.60;62.84
77727;SHT30;68312;53.502;10.030;2023-04-24T13:41:45;12.52;64.71
77727;SHT30;68312;53.502;10.030;2023-04-24T13:44:11;12.43;64.42
77727;SHT30;68312;53.502;10.030;2023-04-24T13:46:36;12.36;64.23
77727;SHT30;68312;53.502;10.030;2023-04-24T13:49:02;12.29;65.86
77727;SHT30;68312;53.502;10.030;2023-04-24T13:51:28;12.24;65.51
77727;SHT30;68312;53.502;10.030;2023-04-24T13:53:54;12.15;65.30
77727;SHT30;68312;53.502;10.030;2023-04-24T13:56:19;12.15;66.05
77727;SHT30;68312;53.502;10.030;2023-04-24T13:58:45;12.16;67.68
77727;SHT30;68312;53.502;10.030;2023-04-24T14:01:10;12.21;67.54
77727;SHT30;68312;53.502;10.030;2023-04-24T14:03:37;12.32;67.62
77727;SHT30;68312;53.502;10.030;2023-04-24T14:06:03;12.21;68.32
77727;SHT30;68312;53.502;10.030;2023-04-24T14:08:28;12.24;67.09
77727;SHT30;68312;53.502;10.030;2023-04-24T14:10:54;12.32;67.39
77727;SHT30;68312;53.502;10.030;2023-04-24T14:13:20;12.53;67.18
77727;SHT30;68312;53.502;10.030;2023-04-24T14:15:46;12.80;65.72
77727;SHT30;68312;53.502;10.030;2023-04-24T14:18:11;12.87;64.46
77727;SHT30;68312;53.502;10.030;2023-04-24T14:20:37;13.03;65.18
77727;SHT30;68312;53.502;10.030;2023-04-24T14:23:03;13.10;66.75
77727;SHT30;68312;53.502;10.030;2023-04-24T14:25:29;13.00;62.93
77727;SHT30;68312;53.502;10.030;2023-04-24T14:27:54;13.10;64.37
77727;SHT30;68312;53.502;10.030;2023-04-24T14:30:20;13.11;63.17
77727;SHT30;68312;53.502;10.030;2023-04-24T14:32:45;13.08;64.26
77727;SHT30;68312;53.502;10.030;2023-04-24T14:35:10;13.15;62.69
77727;SHT30;68312;53.502;10.030;2023-04-24T14:37:36;13.01;62.45
77727;SHT30;68312;53.502;10.030;2023-04-24T14:40:03;12.83;63.81
77727;SHT30;68312;53.502;10.030;2023-04-24T14:42:29;12.61;64.49
77727;SHT30;68312;53.502;10.030;2023-04-24T14:44:54;12.45;64.42
77727;SHT30;68312;53.502;10.030;2023-04-24T14:47:20;12.16;65.78
77727;SHT30;68312;53.502;10.030;2023-04-24T14:49:45;11.99;68.37
77727;SHT30;68312;53.502;10.030;2023-04-24T14:52:11;11.73;71.80
77727;SHT30;68312;53.502;10.030;2023-04-24T14:54:37;11.47;74.35
77727;SHT30;68312;53.502;10.030;2023-04-24T14:57:02;11.27;75.51
77727;SHT30;68312;53.502;10.030;2023-04-24T14:59:28;11.06;77.47
77727;SHT30;68312;53.502;10.030;2023-04-24T15:01:53;10.89;79.53
77727;SHT30;68312;53.502;10.030;2023-04-24T15:04:19;10.68;80.89
77727;SHT30;68312;53.502;10.030;2023-04-24T15:06:44;10.59;83.02
77727;SHT30;68312;53.502;10.030;2023-04-24T15:09:10;10.44;83.21
77727;SHT30;68312;53.502;10.030;2023-04-24T15:11:36;10.25;83.91
77727;SHT30;68312;53.502;10.030;2023-04-24T15:14:02;9.97;84.88
77727;SHT30;68312;53.502;10.030;2023-04-24T15:16:27;9.99;84.59
77727;SHT30;68312;53.502;10.030;2023-04-24T15:18:53;9.94;86.17
77727;SHT30;68312;53.502;10.030;2023-04-24T15:21:18;9.96;87.44
77727;SHT30;68312;53.502;10.030;2023-04-24T15:23:44;9.82;86.17
77727;SHT30;68312;53.502;10.030;2023-04-24T15:26:09;9.78;86.50
77727;SHT30;68312;53.502;10.030;2023-04-24T15:28:35;9.73;86.83